Time;durP1;ratioP1;P1;durP2;ratioP2;P2;SDS_P1;SDS_P2;PMS_P1;PMS_P2;Temp;Humidity;BMP_temperature;BMP_pressure;BME280_temperature;BME280_humidity;BME280_pressure;Samples;Min_cycle;Max_cycle;Signal;HPM_P1;HPM_P2
2021/05/02 00:01:06;;;;;;;1.60;1.50;;;;;;;;;;4872969;29;20259;-80
2021/05/02 00:03:34;;;;;;;1.30;1.20;;;;;;;;;;4887632;29;20234;-80
2021/05/02 00:06:05;;;;;;;1.23;1.10;;;;;;;;;;4883577;28;20311;-79
2021/05/02 00:08:33;;;;;;;1.57;1.17;;;;;;;;;;4871700;29;20239;-81
2021/05/02 00:11:03;;;;;;;1.23;1.13;;;;;;;;;;4889849;28;20236;-81
2021/05/02 00:13:30;;;;;;;1.33;1.20;;;;;;;;;;4883576;29;20720;-81
2021/05/02 00:15:58;;;;;;;1.83;1.67;;;;;;;;;;4886198;28;20242;-81
2021/05/02 00:18:26;;;;;;;2.67;1.50;;;;;;;;;;4889508;28;20613;-79
2021/05/02 00:20:55;;;;;;;2.57;1.90;;;;;;;;;;4889109;29;20247;-79
2021/05/02 00:23:22;;;;;;;2.53;1.90;;;;;;;;;;4895279;28;20236;-80
2021/05/02 00:25:56;;;;;;;1.97;1.30;;;;;;;;;;4889938;28;20224;-81
2021/05/02 00:28:26;;;;;;;1.60;1.37;;;;;;;;;;4884198;29;20221;-78
2021/05/02 00:30:53;;;;;;;1.70;1.23;;;;;;;;;;4885056;29;20237;-82
2021/05/02 00:33:23;;;;;;;1.53;1.10;;;;;;;;;;4864666;29;20225;-78
2021/05/02 00:35:51;;;;;;;1.50;1.00;;;;;;;;;;4884487;29;20228;-78
2021/05/02 00:38:19;;;;;;;0.90;0.90;;;;;;;;;;4879441;29;20830;-78
2021/05/02 00:40:50;;;;;;;1.13;0.80;;;;;;;;;;4884887;28;20239;-79
2021/05/02 00:43:27;;;;;;;0.87;0.87;;;;;;;;;;4884571;29;20237;-77
2021/05/02 00:46:03;;;;;;;2.00;0.70;;;;;;;;;;4887973;29;20225;-78
2021/05/02 00:48:35;;;;;;;0.60;0.60;;;;;;;;;;4903353;28;20251;-79
2021/05/02 00:51:05;;;;;;;0.70;0.70;;;;;;;;;;4894626;29;20225;-79
2021/05/02 00:53:45;;;;;;;0.57;0.57;;;;;;;;;;4866452;29;20236;-79
2021/05/02 00:56:17;;;;;;;0.57;0.50;;;;;;;;;;4879144;29;20232;-81
2021/05/02 00:58:54;;;;;;;0.40;0.40;;;;;;;;;;4880597;28;20240;-80
2021/05/02 01:01:23;;;;;;;0.50;0.50;;;;;;;;;;4888542;29;20713;-79
2021/05/02 01:03:52;;;;;;;0.60;0.57;;;;;;;;;;4891000;28;20240;-79
2021/05/02 01:06:23;;;;;;;0.50;0.50;;;;;;;;;;4872250;29;20232;-79
2021/05/02 01:08:53;;;;;;;0.50;0.50;;;;;;;;;;4883830;29;20238;-78
2021/05/02 01:11:21;;;;;;;0.87;0.60;;;;;;;;;;4900991;28;20224;-80
2021/05/02 01:13:54;;;;;;;0.60;0.60;;;;;;;;;;4880887;28;20242;-78
2021/05/02 01:16:24;;;;;;;0.73;0.50;;;;;;;;;;4875089;29;20615;-80
2021/05/02 01:18:54;;;;;;;0.83;0.80;;;;;;;;;;4890100;28;20232;-79
2021/05/02 01:21:30;;;;;;;0.60;0.60;;;;;;;;;;4885546;29;20231;-78
2021/05/02 01:23:59;;;;;;;0.50;0.50;;;;;;;;;;4870079;29;20243;-78
2021/05/02 01:26:28;;;;;;;0.97;0.70;;;;;;;;;;4898529;29;20633;-78
2021/05/02 01:28:57;;;;;;;0.50;0.50;;;;;;;;;;4870232;28;20259;-78
2021/05/02 01:31:27;;;;;;;0.60;0.60;;;;;;;;;;4888256;29;20221;-78
2021/05/02 01:33:56;;;;;;;0.77;0.77;;;;;;;;;;4885876;28;20307;-78
2021/05/02 01:36:23;;;;;;;0.80;0.80;;;;;;;;;;4893791;29;20236;-79
2021/05/02 01:38:52;;;;;;;0.50;0.50;;;;;;;;;;4895616;28;20239;-79
2021/05/02 01:41:20;;;;;;;0.90;0.90;;;;;;;;;;4866689;29;20703;-78
2021/05/02 01:43:48;;;;;;;0.80;0.80;;;;;;;;;;4885483;28;20233;-78
2021/05/02 01:46:19;;;;;;;1.90;0.90;;;;;;;;;;4888941;29;20232;-78
2021/05/02 01:48:46;;;;;;;2.53;0.90;;;;;;;;;;4893917;28;20250;-78
2021/05/02 01:51:15;;;;;;;0.93;0.90;;;;;;;;;;4882962;28;20233;-78
2021/05/02 01:53:42;;;;;;;1.87;0.93;;;;;;;;;;4887151;29;20232;-79
2021/05/02 01:56:14;;;;;;;1.10;1.00;;;;;;;;;;4892243;29;20742;-78
2021/05/02 01:58:42;;;;;;;1.37;1.00;;;;;;;;;;4882433;29;20244;-78
2021/05/02 02:01:11;;;;;;;1.00;1.00;;;;;;;;;;4870669;29;20244;-79
2021/05/02 02:03:40;;;;;;;1.80;1.20;;;;;;;;;;4890113;29;20239;-80
2021/05/02 02:06:08;;;;;;;0.93;0.93;;;;;;;;;;4889046;29;20228;-81
2021/05/02 02:08:36;;;;;;;1.20;1.10;;;;;;;;;;4879769;29;20235;-80
2021/05/02 02:11:05;;;;;;;1.37;0.90;;;;;;;;;;4895108;28;20318;-81
2021/05/02 02:13:40;;;;;;;1.20;1.10;;;;;;;;;;4895630;29;21029;-80
2021/05/02 02:16:08;;;;;;;0.97;0.97;;;;;;;;;;4874078;29;20236;-81
2021/05/02 02:18:42;;;;;;;1.20;1.10;;;;;;;;;;4891186;28;20247;-80
2021/05/02 02:21:12;;;;;;;1.40;1.30;;;;;;;;;;4893144;29;20236;-82
2021/05/02 02:23:41;;;;;;;1.20;1.10;;;;;;;;;;4896135;28;20225;-80
2021/05/02 02:26:16;;;;;;;1.30;1.20;;;;;;;;;;4888441;29;20459;-80
2021/05/02 02:28:45;;;;;;;1.17;1.10;;;;;;;;;;4879292;28;20243;-81
2021/05/02 02:31:13;;;;;;;1.67;1.13;;;;;;;;;;4891347;29;20228;-80
2021/05/02 02:33:42;;;;;;;1.43;1.33;;;;;;;;;;4889083;29;20230;-79
2021/05/02 02:36:11;;;;;;;1.80;1.17;;;;;;;;;;4876013;29;20237;-81
2021/05/02 02:38:40;;;;;;;2.43;1.20;;;;;;;;;;4894119;29;20240;-80
2021/05/02 02:41:13;;;;;;;1.30;1.20;;;;;;;;;;4883068;29;20321;-79
2021/05/02 02:43:43;;;;;;;1.27;1.17;;;;;;;;;;4891119;29;20225;-79
2021/05/02 02:46:17;;;;;;;1.40;1.30;;;;;;;;;;4900529;29;20700;-80
2021/05/02 02:48:46;;;;;;;1.67;1.23;;;;;;;;;;4872203;29;20379;-80
2021/05/02 02:51:17;;;;;;;2.20;1.30;;;;;;;;;;4899918;29;20607;-78
2021/05/02 02:53:44;;;;;;;1.20;1.10;;;;;;;;;;4867054;29;20228;-81
2021/05/02 02:56:14;;;;;;;1.57;1.40;;;;;;;;;;4887966;29;20239;-79
2021/05/02 02:58:46;;;;;;;1.30;1.03;;;;;;;;;;4874308;29;20710;-78
2021/05/02 03:01:13;;;;;;;0.97;0.93;;;;;;;;;;4889515;29;20244;-79
2021/05/02 03:03:43;;;;;;;1.30;1.20;;;;;;;;;;4889278;29;20235;-80
2021/05/02 03:06:11;;;;;;;1.20;1.10;;;;;;;;;;4874463;29;20228;-81
2021/05/02 03:08:40;;;;;;;1.30;1.10;;;;;;;;;;4874834;29;20243;-79
2021/05/02 03:11:09;;;;;;;1.30;1.20;;;;;;;;;;4880988;29;20240;-79
2021/05/02 03:13:37;;;;;;;1.20;1.10;;;;;;;;;;4895348;29;20612;-79
2021/05/02 03:16:05;;;;;;;1.60;1.40;;;;;;;;;;4877324;29;20246;-80
2021/05/02 03:18:35;;;;;;;1.70;1.27;;;;;;;;;;4889812;29;20243;-79
2021/05/02 03:21:07;;;;;;;1.93;1.60;;;;;;;;;;4887879;29;20251;-79
2021/05/02 03:23:38;;;;;;;1.20;1.10;;;;;;;;;;4887912;28;20257;-80
2021/05/02 03:26:07;;;;;;;1.20;1.10;;;;;;;;;;4886251;28;20658;-80
2021/05/02 03:28:36;;;;;;;1.40;1.30;;;;;;;;;;4892117;29;20240;-79
2021/05/02 03:31:05;;;;;;;1.47;1.37;;;;;;;;;;4885680;28;20241;-79
2021/05/02 03:33:37;;;;;;;1.50;1.40;;;;;;;;;;4890891;28;20228;-80
2021/05/02 03:36:10;;;;;;;1.60;1.50;;;;;;;;;;4869893;29;20229;-80
2021/05/02 03:38:46;;;;;;;1.60;1.50;;;;;;;;;;4887871;29;20729;-81
2021/05/02 03:41:14;;;;;;;1.83;1.47;;;;;;;;;;4902583;29;20223;-80
2021/05/02 03:43:42;;;;;;;1.67;1.57;;;;;;;;;;4900205;29;20229;-80
2021/05/02 03:46:23;;;;;;;1.60;1.50;;;;;;;;;;4897416;29;20703;-80
2021/05/02 03:48:56;;;;;;;2.90;1.53;;;;;;;;;;4887750;29;20248;-79
2021/05/02 03:51:25;;;;;;;1.53;1.43;;;;;;;;;;4882691;29;20617;-79
2021/05/02 03:53:53;;;;;;;1.83;1.70;;;;;;;;;;4884624;28;20225;-79
2021/05/02 03:56:31;;;;;;;1.93;1.83;;;;;;;;;;4887833;28;20236;-79
2021/05/02 03:59:09;;;;;;;1.83;1.63;;;;;;;;;;4872262;28;20240;-79
2021/05/02 04:01:40;;;;;;;2.43;1.90;;;;;;;;;;4882499;29;20589;-79
2021/05/02 04:04:11;;;;;;;2.40;2.00;;;;;;;;;;4892567;28;20221;-80
2021/05/02 04:06:39;;;;;;;2.00;1.83;;;;;;;;;;4894440;28;20235;-80
2021/05/02 04:09:08;;;;;;;2.13;1.93;;;;;;;;;;4885923;29;20238;-79
2021/05/02 04:11:36;;;;;;;3.60;2.07;;;;;;;;;;4888436;29;20235;-80
2021/05/02 04:14:05;;;;;;;2.40;2.20;;;;;;;;;;4887935;28;20236;-80
2021/05/02 04:16:33;;;;;;;2.13;1.93;;;;;;;;;;4892805;29;20232;-80
2021/05/02 04:19:01;;;;;;;2.67;2.23;;;;;;;;;;4885490;29;20241;-79
2021/05/02 04:21:28;;;;;;;3.40;2.60;;;;;;;;;;4892536;29;20745;-79
2021/05/02 04:23:57;;;;;;;2.87;2.57;;;;;;;;;;4883353;29;20711;-79
2021/05/02 04:26:25;;;;;;;3.77;2.63;;;;;;;;;;4864257;29;20676;-79
2021/05/02 04:28:52;;;;;;;3.80;2.93;;;;;;;;;;4886697;28;20244;-79
2021/05/02 04:31:20;;;;;;;5.17;3.73;;;;;;;;;;4877514;29;20243;-78
2021/05/02 04:33:48;;;;;;;3.47;3.17;;;;;;;;;;4900169;29;20232;-79
2021/05/02 04:36:15;;;;;;;4.70;4.17;;;;;;;;;;4894080;29;20718;-79
2021/05/02 04:38:43;;;;;;;6.63;5.10;;;;;;;;;;4895111;29;20232;-79
2021/05/02 04:41:11;;;;;;;5.90;4.63;;;;;;;;;;4888074;28;20241;-79
2021/05/02 04:43:39;;;;;;;5.90;5.30;;;;;;;;;;4896128;29;20231;-79
2021/05/02 04:46:06;;;;;;;7.67;6.07;;;;;;;;;;4875491;29;20235;-80
2021/05/02 04:48:34;;;;;;;8.87;6.70;;;;;;;;;;4891814;29;20252;-78
2021/05/02 04:51:02;;;;;;;9.70;8.00;;;;;;;;;;4905972;28;20236;-79
2021/05/02 04:53:29;;;;;;;11.23;8.93;;;;;;;;;;4880092;29;20229;-80
2021/05/02 04:55:57;;;;;;;11.90;9.00;;;;;;;;;;4881193;28;20245;-79
2021/05/02 04:58:25;;;;;;;11.80;9.20;;;;;;;;;;4881747;29;20234;-78
2021/05/02 05:00:54;;;;;;;13.40;9.57;;;;;;;;;;4893246;29;20245;-82
2021/05/02 05:03:22;;;;;;;9.97;8.57;;;;;;;;;;4892589;28;20262;-80
2021/05/02 05:05:50;;;;;;;11.90;9.63;;;;;;;;;;4895381;29;20236;-79
2021/05/02 05:08:17;;;;;;;10.37;7.53;;;;;;;;;;4890786;29;20236;-79
2021/05/02 05:10:45;;;;;;;12.07;8.87;;;;;;;;;;4886499;28;20228;-79
2021/05/02 05:13:12;;;;;;;10.43;8.10;;;;;;;;;;4895848;29;20321;-79
2021/05/02 05:15:41;;;;;;;9.47;7.97;;;;;;;;;;4889761;28;20240;-79
2021/05/02 05:18:08;;;;;;;10.13;8.30;;;;;;;;;;4887746;28;20244;-79
2021/05/02 05:20:36;;;;;;;10.97;8.47;;;;;;;;;;4890025;28;20235;-79
2021/05/02 05:23:04;;;;;;;13.50;9.70;;;;;;;;;;4896323;28;20752;-80
2021/05/02 05:25:31;;;;;;;11.83;8.47;;;;;;;;;;4898860;29;20605;-80
2021/05/02 05:27:59;;;;;;;10.90;8.67;;;;;;;;;;4891974;29;20241;-79
2021/05/02 05:30:27;;;;;;;9.03;8.03;;;;;;;;;;4891669;28;20238;-78
2021/05/02 05:33:01;;;;;;;11.90;8.53;;;;;;;;;;4896368;28;20232;-79
2021/05/02 05:35:29;;;;;;;13.00;9.40;;;;;;;;;;4891187;29;20235;-79
2021/05/02 05:37:57;;;;;;;12.47;9.47;;;;;;;;;;4888843;28;20240;-79
2021/05/02 05:40:25;;;;;;;11.33;9.20;;;;;;;;;;4896354;29;20243;-79
2021/05/02 05:42:53;;;;;;;11.20;8.83;;;;;;;;;;4876841;29;20241;-79
2021/05/02 05:45:21;;;;;;;11.33;9.03;;;;;;;;;;4889683;29;20229;-80
2021/05/02 05:47:49;;;;;;;14.07;9.50;;;;;;;;;;4895118;29;20241;-80
2021/05/02 05:50:18;;;;;;;12.47;9.80;;;;;;;;;;4891951;29;20718;-80
2021/05/02 05:52:46;;;;;;;15.53;9.77;;;;;;;;;;4895018;28;20229;-81
2021/05/02 05:55:15;;;;;;;12.40;9.53;;;;;;;;;;4897990;29;20247;-83
2021/05/02 05:57:45;;;;;;;13.17;9.10;;;;;;;;;;4897284;29;20242;-80
2021/05/02 06:00:14;;;;;;;14.77;10.33;;;;;;;;;;4890733;29;20238;-80
2021/05/02 06:02:44;;;;;;;11.20;9.33;;;;;;;;;;4870146;29;20587;-80
2021/05/02 06:05:12;;;;;;;13.97;10.27;;;;;;;;;;4877872;29;20726;-81
2021/05/02 06:07:41;;;;;;;14.07;9.90;;;;;;;;;;4894953;29;20626;-80
2021/05/02 06:10:09;;;;;;;11.87;9.17;;;;;;;;;;4868483;29;20236;-80
2021/05/02 06:12:37;;;;;;;11.03;8.33;;;;;;;;;;4886477;29;20233;-80
2021/05/02 06:15:05;;;;;;;9.27;8.27;;;;;;;;;;4866165;29;20232;-80
2021/05/02 06:17:33;;;;;;;12.07;8.50;;;;;;;;;;4895388;29;20235;-80
2021/05/02 06:20:00;;;;;;;10.37;8.97;;;;;;;;;;4893477;28;20236;-77
2021/05/02 06:22:28;;;;;;;8.60;7.40;;;;;;;;;;4886576;29;20955;-80
2021/05/02 06:24:56;;;;;;;9.17;8.20;;;;;;;;;;4893133;29;20618;-78
2021/05/02 06:27:24;;;;;;;9.63;8.13;;;;;;;;;;4893235;29;20713;-78
2021/05/02 06:29:51;;;;;;;9.47;8.27;;;;;;;;;;4893713;29;20249;-80
2021/05/02 06:32:19;;;;;;;10.27;7.60;;;;;;;;;;4901621;29;20228;-77
2021/05/02 06:34:47;;;;;;;9.00;7.17;;;;;;;;;;4913675;28;20235;-77
2021/05/02 06:37:14;;;;;;;8.63;6.87;;;;;;;;;;4886020;29;20741;-80
2021/05/02 06:39:42;;;;;;;8.50;6.73;;;;;;;;;;4877472;29;20240;-79
2021/05/02 06:42:10;;;;;;;6.93;6.17;;;;;;;;;;4881988;29;20241;-80
2021/05/02 06:44:38;;;;;;;6.93;5.57;;;;;;;;;;4890963;29;20251;-80
2021/05/02 06:47:06;;;;;;;7.77;6.37;;;;;;;;;;4893397;28;20476;-82
2021/05/02 06:49:35;;;;;;;6.40;5.63;;;;;;;;;;4894714;29;20236;-80
2021/05/02 06:52:03;;;;;;;7.93;6.33;;;;;;;;;;4884660;28;20251;-80
2021/05/02 06:54:30;;;;;;;6.13;5.17;;;;;;;;;;4890871;29;20237;-80
2021/05/02 06:56:58;;;;;;;6.23;5.57;;;;;;;;;;4882545;29;20237;-80
2021/05/02 06:59:26;;;;;;;7.23;5.47;;;;;;;;;;4893993;29;20232;-81
2021/05/02 07:01:53;;;;;;;6.37;5.50;;;;;;;;;;4888222;28;20224;-79
2021/05/02 07:04:21;;;;;;;6.43;5.17;;;;;;;;;;4878544;29;20240;-79
2021/05/02 07:06:49;;;;;;;6.93;6.13;;;;;;;;;;4889982;29;20477;-79
2021/05/02 07:09:17;;;;;;;7.37;6.20;;;;;;;;;;4880315;28;20234;-80
2021/05/02 07:11:44;;;;;;;8.63;6.37;;;;;;;;;;4891456;29;20719;-79
2021/05/02 07:14:12;;;;;;;6.40;5.80;;;;;;;;;;4893290;28;20239;-80
2021/05/02 07:16:40;;;;;;;6.50;5.67;;;;;;;;;;4885425;29;20240;-80
2021/05/02 07:19:08;;;;;;;7.47;6.60;;;;;;;;;;4886330;29;20233;-79
2021/05/02 07:21:35;;;;;;;7.20;6.00;;;;;;;;;;4891057;29;20239;-80
2021/05/02 07:24:04;;;;;;;7.23;6.30;;;;;;;;;;4885546;29;20278;-80
2021/05/02 07:26:32;;;;;;;6.63;5.93;;;;;;;;;;4888847;29;20713;-80
2021/05/02 07:28:59;;;;;;;7.60;5.57;;;;;;;;;;4876169;29;20239;-80
2021/05/02 07:31:27;;;;;;;6.27;5.67;;;;;;;;;;4893036;29;20247;-79
2021/05/02 07:33:55;;;;;;;7.27;6.10;;;;;;;;;;4888182;29;20511;-78
2021/05/02 07:36:23;;;;;;;6.33;5.30;;;;;;;;;;4900185;28;20241;-79
2021/05/02 07:38:51;;;;;;;6.67;5.53;;;;;;;;;;4867170;29;20780;-81
2021/05/02 07:41:18;;;;;;;8.10;6.47;;;;;;;;;;4870494;29;20624;-79
2021/05/02 07:43:46;;;;;;;6.13;5.53;;;;;;;;;;4889316;28;20221;-80
2021/05/02 07:46:13;;;;;;;6.03;5.33;;;;;;;;;;4851367;29;20229;-80
2021/05/02 07:48:41;;;;;;;7.10;5.70;;;;;;;;;;4888674;29;20233;-79
2021/05/02 07:51:10;;;;;;;6.40;5.70;;;;;;;;;;4885943;29;20232;-80
2021/05/02 07:53:38;;;;;;;5.67;5.10;;;;;;;;;;4890391;29;20706;-80
2021/05/02 07:56:06;;;;;;;5.80;5.20;;;;;;;;;;4885559;28;20240;-80
2021/05/02 07:58:33;;;;;;;6.07;5.47;;;;;;;;;;4875969;29;20608;-82
2021/05/02 08:01:01;;;;;;;7.33;5.83;;;;;;;;;;4892058;28;20239;-79
2021/05/02 08:03:29;;;;;;;7.23;6.53;;;;;;;;;;4891674;29;20221;-81
2021/05/02 08:05:59;;;;;;;8.60;6.77;;;;;;;;;;4887676;28;20239;-79
2021/05/02 08:08:28;;;;;;;7.30;6.40;;;;;;;;;;4875490;29;20233;-80
2021/05/02 08:10:59;;;;;;;7.60;6.33;;;;;;;;;;4893543;29;20741;-79
2021/05/02 08:13:27;;;;;;;7.53;5.87;;;;;;;;;;4869445;29;20224;-80
2021/05/02 08:15:54;;;;;;;7.43;6.67;;;;;;;;;;4896572;29;20229;-80
2021/05/02 08:18:22;;;;;;;7.33;5.77;;;;;;;;;;4888074;29;20244;-80
2021/05/02 08:20:49;;;;;;;8.07;7.27;;;;;;;;;;4892031;28;20225;-80
2021/05/02 08:23:17;;;;;;;6.40;5.80;;;;;;;;;;4893703;29;20240;-79
2021/05/02 08:25:46;;;;;;;6.13;5.53;;;;;;;;;;4895209;29;20615;-81
2021/05/02 08:28:29;;;;;;;6.17;5.47;;;;;;;;;;4890902;28;20233;-81
2021/05/02 08:30:56;;;;;;;6.00;5.40;;;;;;;;;;4889222;29;20229;-80
2021/05/02 08:33:24;;;;;;;6.80;5.00;;;;;;;;;;4895955;28;20238;-80
2021/05/02 08:35:52;;;;;;;5.93;5.33;;;;;;;;;;4893611;28;20240;-80
2021/05/02 08:38:20;;;;;;;6.00;5.40;;;;;;;;;;4895186;29;20230;-80
2021/05/02 08:40:48;;;;;;;6.00;5.23;;;;;;;;;;4897015;28;20240;-80
2021/05/02 08:43:17;;;;;;;5.37;4.87;;;;;;;;;;4906456;28;20402;-80
2021/05/02 08:45:45;;;;;;;5.93;5.33;;;;;;;;;;4896962;28;20736;-81
2021/05/02 08:48:13;;;;;;;5.63;5.07;;;;;;;;;;4895978;29;20655;-81
2021/05/02 08:50:40;;;;;;;6.63;6.00;;;;;;;;;;4874793;29;20234;-81
2021/05/02 08:53:08;;;;;;;6.47;5.87;;;;;;;;;;4880522;29;20620;-81
2021/05/02 08:55:35;;;;;;;6.90;6.20;;;;;;;;;;4879784;29;20236;-80
2021/05/02 08:58:04;;;;;;;7.10;6.40;;;;;;;;;;4896672;29;20245;-80
2021/05/02 09:00:33;;;;;;;6.73;6.07;;;;;;;;;;4895295;28;20315;-81
2021/05/02 09:03:01;;;;;;;7.60;5.87;;;;;;;;;;4892838;28;20826;-80
2021/05/02 09:05:42;;;;;;;7.57;6.87;;;;;;;;;;4895524;29;20239;-80
2021/05/02 09:08:10;;;;;;;7.33;6.57;;;;;;;;;;4887140;29;20592;-80
2021/05/02 09:10:38;;;;;;;7.37;6.60;;;;;;;;;;4883452;29;20630;-81
2021/05/02 09:13:13;;;;;;;9.47;7.20;;;;;;;;;;4869217;29;20632;-80
2021/05/02 09:15:46;;;;;;;8.43;7.53;;;;;;;;;;4891327;29;20228;-80
2021/05/02 09:18:17;;;;;;;9.63;8.70;;;;;;;;;;4869332;29;20263;-80
2021/05/02 09:20:48;;;;;;;9.50;7.27;;;;;;;;;;4895571;28;20240;-79
2021/05/02 09:23:18;;;;;;;9.13;8.23;;;;;;;;;;4880041;29;20243;-79
2021/05/02 09:25:47;;;;;;;10.43;9.43;;;;;;;;;;4898978;28;20595;-79
2021/05/02 09:28:16;;;;;;;9.57;8.57;;;;;;;;;;4889047;29;20237;-80
2021/05/02 09:30:44;;;;;;;9.63;8.70;;;;;;;;;;4885376;29;20707;-79
2021/05/02 09:33:25;;;;;;;9.50;8.60;;;;;;;;;;4898723;28;20244;-79
2021/05/02 09:35:52;;;;;;;9.10;8.23;;;;;;;;;;4913418;28;20227;-78
2021/05/02 09:38:20;;;;;;;8.17;7.37;;;;;;;;;;4919814;29;20221;-78
2021/05/02 09:40:49;;;;;;;11.90;9.90;;;;;;;;;;4882126;29;20613;-78
2021/05/02 09:43:31;;;;;;;11.00;9.80;;;;;;;;;;4893426;28;20622;-79
2021/05/02 09:46:26;;;;;;;9.80;8.80;;;;;;;;;;4889111;29;20236;-79
2021/05/02 09:48:56;;;;;;;8.73;7.93;;;;;;;;;;4885233;29;20233;-78
2021/05/02 09:51:25;;;;;;;9.20;7.73;;;;;;;;;;4908003;28;20733;-79
2021/05/02 09:54:08;;;;;;;6.70;6.10;;;;;;;;;;4893438;28;20239;-79
2021/05/02 09:56:38;;;;;;;7.40;6.67;;;;;;;;;;4893774;29;20243;-79
2021/05/02 09:59:19;;;;;;;7.60;6.90;;;;;;;;;;4889188;28;20330;-78
2021/05/02 10:02:17;;;;;;;7.97;7.17;;;;;;;;;;4893535;28;20244;-79
2021/05/02 10:04:46;;;;;;;7.60;6.90;;;;;;;;;;4875033;28;20233;-79
2021/05/02 10:07:15;;;;;;;8.63;7.73;;;;;;;;;;4891713;29;20229;-79
2021/05/02 10:09:43;;;;;;;8.63;7.80;;;;;;;;;;4889936;29;20695;-78
2021/05/02 10:12:12;;;;;;;8.40;7.50;;;;;;;;;;4891371;29;20710;-78
2021/05/02 10:14:41;;;;;;;8.80;8.00;;;;;;;;;;4894044;29;20639;-79
2021/05/02 10:17:09;;;;;;;8.13;7.43;;;;;;;;;;4887041;29;20237;-77
2021/05/02 10:19:39;;;;;;;8.23;7.50;;;;;;;;;;4877675;29;20236;-79
2021/05/02 10:22:08;;;;;;;23.17;9.60;;;;;;;;;;4889189;29;20283;-79
2021/05/02 10:24:36;;;;;;;9.07;7.17;;;;;;;;;;4880405;28;20228;-77
2021/05/02 10:27:09;;;;;;;7.93;7.13;;;;;;;;;;4873131;29;20237;-78
2021/05/02 10:29:41;;;;;;;13.90;10.17;;;;;;;;;;4876591;29;20241;-78
2021/05/02 10:32:10;;;;;;;10.93;8.70;;;;;;;;;;4892157;29;20719;-82
2021/05/02 10:34:39;;;;;;;10.30;8.40;;;;;;;;;;4894191;29;20232;-80
2021/05/02 10:37:27;;;;;;;7.03;6.33;;;;;;;;;;4887769;29;20228;-80
2021/05/02 10:39:56;;;;;;;7.73;6.93;;;;;;;;;;4882171;29;20244;-80
2021/05/02 10:42:49;;;;;;;7.37;6.67;;;;;;;;;;4891949;29;20240;-81
2021/05/02 10:45:47;;;;;;;7.07;6.37;;;;;;;;;;4891560;28;20243;-82
2021/05/02 10:48:48;;;;;;;8.27;7.43;;;;;;;;;;4873053;29;20734;-78
2021/05/02 10:51:29;;;;;;;7.53;6.83;;;;;;;;;;4896736;28;20610;-77
2021/05/02 10:54:08;;;;;;;7.20;6.60;;;;;;;;;;4892123;29;20228;-78
2021/05/02 10:56:58;;;;;;;7.57;6.87;;;;;;;;;;4889042;29;20816;-77
2021/05/02 10:59:27;;;;;;;7.70;7.00;;;;;;;;;;4887728;29;20228;-78
2021/05/02 11:01:56;;;;;;;7.83;7.13;;;;;;;;;;4886155;29;20217;-79
2021/05/02 11:04:56;;;;;;;7.57;6.97;;;;;;;;;;4882530;29;20234;-78
2021/05/02 11:07:33;;;;;;;8.50;7.70;;;;;;;;;;4885351;29;20233;-77
2021/05/02 11:10:02;;;;;;;8.47;7.57;;;;;;;;;;4874844;29;20240;-80
2021/05/02 11:12:31;;;;;;;8.47;7.67;;;;;;;;;;4889893;29;20700;-81
2021/05/02 11:15:01;;;;;;;8.10;7.40;;;;;;;;;;4885370;29;20711;-83
2021/05/02 11:17:31;;;;;;;8.40;7.60;;;;;;;;;;4878853;29;20235;-81
2021/05/02 11:20:00;;;;;;;8.60;7.80;;;;;;;;;;4896678;29;20224;-81
2021/05/02 11:22:28;;;;;;;8.80;8.00;;;;;;;;;;4895409;29;20607;-78
2021/05/02 11:25:03;;;;;;;7.77;6.97;;;;;;;;;;4878338;29;20237;-80
2021/05/02 11:27:57;;;;;;;8.60;7.80;;;;;;;;;;4871061;29;20229;-79
2021/05/02 11:30:27;;;;;;;9.13;8.23;;;;;;;;;;4891221;29;20243;-80
2021/05/02 11:32:56;;;;;;;8.40;7.63;;;;;;;;;;4893230;28;20243;-79
2021/05/02 11:35:52;;;;;;;8.23;7.50;;;;;;;;;;4896604;29;20244;-81
2021/05/02 11:38:47;;;;;;;8.20;7.43;;;;;;;;;;4877028;29;20235;-79
2021/05/02 11:41:15;;;;;;;8.00;7.30;;;;;;;;;;4872690;29;20248;-78
2021/05/02 11:43:44;;;;;;;8.13;7.33;;;;;;;;;;4877285;29;20225;-82
2021/05/02 11:46:19;;;;;;;8.77;7.97;;;;;;;;;;4890225;29;20240;-77
2021/05/02 11:48:50;;;;;;;7.97;7.27;;;;;;;;;;4871884;29;20303;-79
2021/05/02 11:51:24;;;;;;;7.77;6.97;;;;;;;;;;4876743;29;20581;-79
2021/05/02 11:53:53;;;;;;;9.93;7.63;;;;;;;;;;4872507;29;20240;-79
2021/05/02 11:56:23;;;;;;;8.87;7.60;;;;;;;;;;4892140;29;20230;-79
2021/05/02 11:58:52;;;;;;;7.80;6.97;;;;;;;;;;4893334;28;20228;-79
2021/05/02 12:01:25;;;;;;;7.60;6.90;;;;;;;;;;4891689;29;20232;-79
2021/05/02 12:04:02;;;;;;;10.70;7.93;;;;;;;;;;4872875;29;20241;-79
2021/05/02 12:06:30;;;;;;;9.80;8.80;;;;;;;;;;4876311;29;20233;-81
2021/05/02 12:08:59;;;;;;;9.70;8.70;;;;;;;;;;4891722;29;20263;-79
2021/05/02 12:11:27;;;;;;;13.27;9.13;;;;;;;;;;4875691;29;20226;-80
2021/05/02 12:13:56;;;;;;;12.70;10.37;;;;;;;;;;4890766;28;20260;-81
2021/05/02 12:16:25;;;;;;;12.23;9.50;;;;;;;;;;4892013;29;20252;-84
2021/05/02 12:18:59;;;;;;;10.67;9.47;;;;;;;;;;4894040;29;20614;-79
2021/05/02 12:21:34;;;;;;;10.90;9.20;;;;;;;;;;4889216;29;20224;-80
2021/05/02 12:24:13;;;;;;;11.33;9.50;;;;;;;;;;4887279;29;20225;-79
2021/05/02 12:26:43;;;;;;;12.17;9.93;;;;;;;;;;4897987;29;20228;-82
2021/05/02 12:29:13;;;;;;;13.97;10.30;;;;;;;;;;4892621;29;20236;-81
2021/05/02 12:31:41;;;;;;;13.97;9.90;;;;;;;;;;4878998;29;20225;-79
2021/05/02 12:34:11;;;;;;;12.93;10.00;;;;;;;;;;4885514;29;20232;-79
2021/05/02 12:36:39;;;;;;;12.27;10.50;;;;;;;;;;4880063;29;20256;-79
2021/05/02 12:39:09;;;;;;;15.00;13.20;;;;;;;;;;4910936;29;20233;-82
2021/05/02 12:41:38;;;;;;;15.97;14.30;;;;;;;;;;4906853;29;20228;-83
2021/05/02 12:44:21;;;;;;;13.23;11.70;;;;;;;;;;4896297;28;20233;-80
2021/05/02 12:46:50;;;;;;;13.37;12.17;;;;;;;;;;4877274;28;20235;-79
2021/05/02 12:49:21;;;;;;;16.20;12.43;;;;;;;;;;4894440;29;20247;-81
2021/05/02 12:51:51;;;;;;;13.73;12.33;;;;;;;;;;4866479;29;20233;-80
2021/05/02 12:54:21;;;;;;;14.30;12.93;;;;;;;;;;4889096;29;20233;-79
2021/05/02 12:57:03;;;;;;;17.80;15.90;;;;;;;;;;4884542;28;20233;-82
2021/05/02 12:59:39;;;;;;;12.30;11.10;;;;;;;;;;4874671;29;20239;-79
2021/05/02 13:02:13;;;;;;;9.87;8.87;;;;;;;;;;4896998;28;20228;-79
2021/05/02 13:04:50;;;;;;;7.97;6.80;;;;;;;;;;4896689;29;20251;-79
2021/05/02 13:07:30;;;;;;;7.20;6.53;;;;;;;;;;4886036;29;20232;-79
2021/05/02 13:09:58;;;;;;;7.57;6.77;;;;;;;;;;4886819;28;20237;-79
2021/05/02 13:12:28;;;;;;;5.07;4.67;;;;;;;;;;4899064;28;20229;-77
2021/05/02 13:15:03;;;;;;;4.53;4.23;;;;;;;;;;4891742;28;20248;-77
2021/05/02 13:17:31;;;;;;;5.38;4.75;;;;;;;;;;4894972;28;20322;-77
2021/05/02 13:20:00;;;;;;;5.30;4.90;;;;;;;;;;4888453;28;20729;-78
2021/05/02 13:22:30;;;;;;;5.38;4.97;;;;;;;;;;4896658;29;20614;-77
2021/05/02 13:25:02;;;;;;;5.85;5.43;;;;;;;;;;4892009;28;20229;-77
2021/05/02 13:27:42;;;;;;;6.03;5.63;;;;;;;;;;4880809;28;20241;-77
2021/05/02 13:30:12;;;;;;;6.88;6.32;;;;;;;;;;4895862;29;20608;-77
2021/05/02 13:32:59;;;;;;;6.38;5.82;;;;;;;;;;4895859;29;20235;-77
2021/05/02 13:35:29;;;;;;;5.78;5.28;;;;;;;;;;4891979;28;20233;-80
2021/05/02 13:37:57;;;;;;;5.78;5.38;;;;;;;;;;4887012;28;20343;-78
2021/05/02 13:40:25;;;;;;;6.40;5.90;;;;;;;;;;4891626;29;20236;-77
2021/05/02 13:42:55;;;;;;;6.70;6.20;;;;;;;;;;4889183;28;20248;-77
2021/05/02 13:45:23;;;;;;;7.47;6.78;;;;;;;;;;4890424;28;20255;-79
2021/05/02 13:47:52;;;;;;;6.60;6.10;;;;;;;;;;4891465;29;20577;-77
2021/05/02 13:50:21;;;;;;;7.10;6.60;;;;;;;;;;4873568;29;20245;-79
2021/05/02 13:52:50;;;;;;;8.88;8.07;;;;;;;;;;4893668;28;20229;-78
2021/05/02 13:55:18;;;;;;;6.50;5.90;;;;;;;;;;4896197;29;20233;-78
2021/05/02 13:57:51;;;;;;;6.03;5.53;;;;;;;;;;4895073;29;20244;-78
2021/05/02 14:00:21;;;;;;;6.70;6.10;;;;;;;;;;4878588;29;20233;-78
2021/05/02 14:02:49;;;;;;;6.57;6.07;;;;;;;;;;4894210;29;20237;-80
2021/05/02 14:05:18;;;;;;;6.47;5.87;;;;;;;;;;4893263;28;20596;-80
2021/05/02 14:07:46;;;;;;;6.63;6.03;;;;;;;;;;4895670;28;20237;-83
2021/05/02 14:10:15;;;;;;;6.80;6.17;;;;;;;;;;4895048;29;20236;-85
2021/05/02 14:12:42;;;;;;;6.33;5.77;;;;;;;;;;4896232;29;20232;-80
2021/05/02 14:15:10;;;;;;;7.07;6.37;;;;;;;;;;4893196;28;20695;-81
2021/05/02 14:17:39;;;;;;;6.40;5.80;;;;;;;;;;4887848;29;20573;-83
2021/05/02 14:20:07;;;;;;;7.37;6.77;;;;;;;;;;4884244;28;20601;-80
2021/05/02 14:22:34;;;;;;;7.00;6.40;;;;;;;;;;4894561;29;20233;-79
2021/05/02 14:25:05;;;;;;;6.47;5.97;;;;;;;;;;4895994;28;20753;-78
2021/05/02 14:27:33;;;;;;;8.37;7.57;;;;;;;;;;4899122;28;20612;-79
2021/05/02 14:30:01;;;;;;;6.77;6.17;;;;;;;;;;4888787;28;20243;-78
2021/05/02 14:32:28;;;;;;;7.10;6.50;;;;;;;;;;4892236;28;20240;-79
2021/05/02 14:34:56;;;;;;;6.57;6.07;;;;;;;;;;4893907;28;20646;-78
2021/05/02 14:37:25;;;;;;;6.73;6.13;;;;;;;;;;4884756;29;20233;-77
2021/05/02 14:39:52;;;;;;;7.30;6.60;;;;;;;;;;4893445;28;20225;-83
2021/05/02 14:42:22;;;;;;;7.30;6.60;;;;;;;;;;4871114;29;20233;-80
2021/05/02 14:44:50;;;;;;;7.07;6.37;;;;;;;;;;4891338;29;20236;-80
2021/05/02 14:47:18;;;;;;;7.70;7.00;;;;;;;;;;4887549;28;20225;-84
2021/05/02 14:49:46;;;;;;;6.90;6.30;;;;;;;;;;4890414;28;20245;-80
2021/05/02 14:52:13;;;;;;;6.63;6.03;;;;;;;;;;4877090;29;20230;-80
2021/05/02 14:54:42;;;;;;;6.63;6.03;;;;;;;;;;4903450;29;20609;-82
2021/05/02 14:57:10;;;;;;;7.13;6.47;;;;;;;;;;4888498;29;20230;-80
2021/05/02 14:59:38;;;;;;;6.77;6.13;;;;;;;;;;4896378;29;20233;-80